Time;durP1;ratioP1;P1;durP2;ratioP2;P2;SDS_P1;SDS_P2;PMS_P1;PMS_P2;Temp;Humidity;BMP_temperature;BMP_pressure;BME280_temperature;BME280_humidity;BME280_pressure;Samples;Min_cycle;Max_cycle;Signal;HPM_P1;HPM_P2
2023/08/11 00:01:54;;;;;;;0.53;0.53;;;;;;;16.76;83.89;95984.16;4356003;32;20220;-67
2023/08/11 00:04:20;;;;;;;0.70;0.70;;;;;;;16.67;84.19;95980.69;4351326;32;20261;-68
2023/08/11 00:06:45;;;;;;;1.83;1.73;;;;;;;16.64;84.29;95987.47;4350494;32;20219;-67
2023/08/11 00:09:11;;;;;;;1.13;1.13;;;;;;;16.60;84.56;95991.87;4345209;32;20228;-67
2023/08/11 00:11:36;;;;;;;0.90;0.87;;;;;;;16.60;84.66;95985.72;4348232;32;20176;-68
2023/08/11 00:14:02;;;;;;;0.70;0.70;;;;;;;16.66;84.29;95989.81;4356017;32;20185;-68
2023/08/11 00:16:27;;;;;;;0.60;0.60;;;;;;;16.55;84.81;95985.88;4355785;32;20197;-67
2023/08/11 00:18:52;;;;;;;1.03;1.03;;;;;;;16.59;84.57;95984.94;4345109;32;20249;-67
2023/08/11 00:21:18;;;;;;;0.70;0.70;;;;;;;16.60;84.61;95985.72;4353293;32;20197;-67
2023/08/11 00:23:43;;;;;;;1.47;1.37;;;;;;;16.50;85.07;95979.56;4353044;32;20195;-67
2023/08/11 00:26:10;;;;;;;0.80;0.80;;;;;;;16.43;85.21;95983.78;4352893;32;20185;-67
2023/08/11 00:28:35;;;;;;;1.43;1.33;;;;;;;16.41;85.14;95976.09;4349006;32;20209;-67
2023/08/11 00:31:01;;;;;;;1.10;1.10;;;;;;;16.44;85.13;95983.47;4340000;32;20203;-67
2023/08/11 00:33:26;;;;;;;1.00;1.00;;;;;;;16.42;85.39;95979.53;4349604;32;20260;-67
2023/08/11 00:35:51;;;;;;;3.90;1.50;;;;;;;16.46;85.22;95981.28;4354546;32;20189;-67
2023/08/11 00:38:17;;;;;;;1.70;1.00;;;;;;;16.43;85.36;95984.59;4349753;32;20234;-67
2023/08/11 00:40:42;;;;;;;0.77;0.77;;;;;;;16.41;85.41;95986.03;4350149;32;20200;-67
2023/08/11 00:43:07;;;;;;;1.40;1.37;;;;;;;16.34;85.71;95985.69;4340356;32;20200;-66
2023/08/11 00:45:33;;;;;;;0.57;0.57;;;;;;;16.22;86.21;95994.31;4357599;32;20173;-67
2023/08/11 00:47:59;;;;;;;0.93;0.93;;;;;;;16.20;86.46;95985.84;4341544;32;20205;-67
2023/08/11 00:50:24;;;;;;;3.97;1.63;;;;;;;16.16;86.47;95990.22;4356562;32;20200;-67
2023/08/11 00:52:50;;;;;;;0.90;0.90;;;;;;;15.99;87.60;95984.84;4341697;32;20197;-67
2023/08/11 00:55:18;;;;;;;0.77;0.77;;;;;;;15.96;87.72;95993.50;4355271;32;20185;-67
2023/08/11 00:57:45;;;;;;;1.10;1.10;;;;;;;15.99;87.80;95982.16;4339368;32;20235;-67
2023/08/11 01:00:12;;;;;;;1.10;1.10;;;;;;;15.99;87.61;95982.94;4354223;32;20250;-67
2023/08/11 01:02:42;;;;;;;18.83;1.27;;;;;;;15.99;87.78;95984.84;4354991;32;20180;-66
2023/08/11 01:05:09;;;;;;;1.17;1.17;;;;;;;16.08;87.23;95980.28;4343419;32;20181;-66
2023/08/11 01:07:46;;;;;;;0.63;0.63;;;;;;;16.01;87.46;95987.97;4351361;32;20244;-67
2023/08/11 01:10:23;;;;;;;0.70;0.70;;;;;;;16.12;86.81;95992.75;4344797;32;20214;-67
2023/08/11 01:13:05;;;;;;;0.60;0.60;;;;;;;16.16;86.49;95992.91;4352457;32;20193;-67
2023/08/11 01:15:35;;;;;;;1.27;1.23;;;;;;;16.20;86.34;95993.06;4340324;32;20189;-67
2023/08/11 01:18:04;;;;;;;0.90;0.90;;;;;;;16.13;86.30;95993.53;4339882;32;20225;-67
2023/08/11 01:20:30;;;;;;;0.90;0.90;;;;;;;16.21;86.10;95997.34;4342138;32;20199;-67
2023/08/11 01:22:59;;;;;;;0.87;0.87;;;;;;;16.11;86.34;96003.75;4341746;32;20235;-67
2023/08/11 01:25:25;;;;;;;1.27;1.27;;;;;;;16.06;86.71;96001.22;4339968;32;20178;-66
2023/08/11 01:27:58;;;;;;;0.50;0.50;;;;;;;16.03;86.41;96005.28;4342179;32;20188;-67
2023/08/11 01:30:25;;;;;;;0.60;0.60;;;;;;;16.00;86.48;96003.22;4341857;32;20172;-67
2023/08/11 01:32:51;;;;;;;0.53;0.53;;;;;;;15.96;86.80;96004.19;4356177;32;20181;-66
2023/08/11 01:35:18;;;;;;;1.10;1.10;;;;;;;15.98;86.92;96005.47;4349378;32;20244;-67
2023/08/11 01:37:44;;;;;;;1.40;1.13;;;;;;;16.01;86.41;96001.34;4350895;32;20239;-67
2023/08/11 01:40:14;;;;;;;1.20;1.20;;;;;;;15.83;87.40;96005.84;4343022;32;20184;-66
2023/08/11 01:42:44;;;;;;;1.17;1.17;;;;;;;16.00;86.82;96005.91;4345314;32;20270;-66
2023/08/11 01:45:11;;;;;;;1.30;1.30;;;;;;;15.97;86.65;96001.22;4340211;32;20196;-67
2023/08/11 01:47:38;;;;;;;0.90;0.90;;;;;;;15.87;87.17;96003.34;4341610;32;20169;-67
2023/08/11 01:50:06;;;;;;;1.00;0.97;;;;;;;15.87;87.28;96000.69;4354791;32;20192;-67
2023/08/11 01:52:34;;;;;;;0.40;0.40;;;;;;;15.90;87.00;96006.22;4341110;32;20211;-67
2023/08/11 01:55:00;;;;;;;1.37;1.27;;;;;;;15.87;86.79;96006.03;4347506;32;20181;-67
2023/08/11 01:57:25;;;;;;;0.80;0.80;;;;;;;15.79;87.33;96005.69;4341088;32;20262;-67
2023/08/11 01:59:52;;;;;;;4.70;1.30;;;;;;;15.73;88.07;96006.94;4353064;32;20188;-67
2023/08/11 02:02:18;;;;;;;1.20;1.20;;;;;;;15.82;87.60;95999.72;4342551;32;20188;-67
2023/08/11 02:04:43;;;;;;;1.87;1.77;;;;;;;15.84;87.38;96006.66;4348377;32;20209;-67
2023/08/11 02:07:08;;;;;;;9.87;1.17;;;;;;;15.77;87.80;96002.56;4345991;32;20192;-66
2023/08/11 02:09:34;;;;;;;0.90;0.90;;;;;;;15.85;87.40;96000.19;4347200;32;20177;-67
2023/08/11 02:11:59;;;;;;;1.00;1.00;;;;;;;15.91;87.25;96001.66;4353938;32;20181;-67
2023/08/11 02:14:24;;;;;;;1.13;1.10;;;;;;;15.90;87.36;96000.84;4355802;32;20254;-67
2023/08/11 02:16:50;;;;;;;0.80;0.80;;;;;;;15.93;87.32;95994.09;4354736;32;20208;-66
2023/08/11 02:19:15;;;;;;;1.30;1.20;;;;;;;15.93;87.47;95994.09;4342625;32;20235;-66
2023/08/11 02:21:42;;;;;;;1.20;1.20;;;;;;;15.79;88.28;96000.34;4347073;32;20181;-67
2023/08/11 02:24:07;;;;;;;1.27;1.27;;;;;;;15.79;87.89;95994.97;4352127;32;20266;-64
2023/08/11 02:26:33;;;;;;;0.53;0.53;;;;;;;15.73;88.01;96001.59;4353995;32;20200;-67
2023/08/11 02:28:58;;;;;;;1.13;1.13;;;;;;;15.70;88.19;96002.19;4352044;32;20193;-67
2023/08/11 02:31:25;;;;;;;1.07;1.07;;;;;;;15.77;87.47;95997.22;4355040;32;20185;-66
2023/08/11 02:33:51;;;;;;;0.87;0.87;;;;;;;15.71;87.95;96003.78;4343546;32;20238;-66
2023/08/11 02:36:16;;;;;;;1.07;1.07;;;;;;;15.65;88.31;96007.69;4358235;32;20200;-67
2023/08/11 02:38:41;;;;;;;1.63;1.53;;;;;;;15.59;88.80;96000.88;4354491;32;20180;-66
2023/08/11 02:41:07;;;;;;;1.87;1.47;;;;;;;15.48;89.36;95997.66;4337231;32;20185;-67
2023/08/11 02:43:34;;;;;;;1.07;1.07;;;;;;;15.50;88.94;96001.91;4354570;32;20251;-67
2023/08/11 02:45:59;;;;;;;3.90;0.80;;;;;;;15.68;88.11;96001.72;4342774;32;20185;-67
2023/08/11 02:48:24;;;;;;;1.57;1.47;;;;;;;15.47;88.69;95998.75;4346228;32;20199;-67
2023/08/11 02:50:50;;;;;;;0.70;0.70;;;;;;;15.59;88.52;96000.13;4349509;32;20194;-67
2023/08/11 02:53:15;;;;;;;2.10;1.93;;;;;;;15.69;88.15;96002.50;4358682;32;20295;-67
2023/08/11 02:55:40;;;;;;;1.60;0.90;;;;;;;15.66;88.26;96003.91;4346981;32;20181;-66
2023/08/11 02:58:06;;;;;;;0.97;0.90;;;;;;;15.53;88.63;95996.75;4339194;32;20184;-67
2023/08/11 03:00:33;;;;;;;6.20;1.77;;;;;;;15.51;88.77;95998.94;4347936;32;20200;-67
2023/08/11 03:02:58;;;;;;;1.20;1.10;;;;;;;15.62;88.30;96004.81;4335003;32;20207;-67
2023/08/11 03:05:24;;;;;;;1.00;1.00;;;;;;;15.58;88.70;95988.62;4357514;32;20181;-67
2023/08/11 03:07:50;;;;;;;2.77;0.93;;;;;;;15.51;89.27;95985.56;4343384;32;20193;-67
2023/08/11 03:10:15;;;;;;;0.97;0.97;;;;;;;15.40;89.36;95985.03;4354862;32;20243;-67
2023/08/11 03:12:41;;;;;;;0.70;0.70;;;;;;;15.49;88.86;95985.09;4350614;32;20181;-67
2023/08/11 03:15:07;;;;;;;0.80;0.80;;;;;;;15.48;88.86;95991.53;4340625;32;20178;-67
2023/08/11 03:17:35;;;;;;;0.93;0.93;;;;;;;15.46;89.03;95991.03;4352318;32;20204;-67
2023/08/11 03:20:00;;;;;;;1.13;1.13;;;;;;;15.43;88.98;95991.66;4340363;32;20177;-67
2023/08/11 03:22:25;;;;;;;1.40;1.30;;;;;;;15.37;89.18;95998.25;4330005;32;20269;-67
2023/08/11 03:24:51;;;;;;;1.50;1.40;;;;;;;15.38;89.08;95999.84;4344805;32;20226;-67
2023/08/11 03:27:18;;;;;;;1.03;1.03;;;;;;;15.47;88.81;95989.94;4349501;32;20195;-67
2023/08/11 03:29:44;;;;;;;1.40;1.40;;;;;;;15.45;88.99;95989.47;4329163;32;20196;-66
2023/08/11 03:32:10;;;;;;;2.37;1.70;;;;;;;15.29;89.48;95990.97;4349989;32;20232;-67
2023/08/11 03:34:35;;;;;;;1.47;1.37;;;;;;;15.41;88.80;95994.63;4344720;32;20190;-67
2023/08/11 03:37:01;;;;;;;1.03;1.03;;;;;;;15.45;88.32;95995.59;4334118;32;20232;-67
2023/08/11 03:39:26;;;;;;;1.90;1.37;;;;;;;15.25;89.47;95988.09;4335950;32;20257;-67
2023/08/11 03:41:52;;;;;;;1.17;1.17;;;;;;;15.27;89.35;95998.50;4340536;32;20201;-67
2023/08/11 03:44:18;;;;;;;1.00;1.00;;;;;;;15.29;89.36;95996.31;4345674;32;20188;-67
2023/08/11 03:46:43;;;;;;;1.33;1.23;;;;;;;15.29;89.22;95999.78;4344699;32;20200;-67
2023/08/11 03:49:08;;;;;;;1.47;1.00;;;;;;;15.30;89.11;96009.38;4333917;32;20178;-66
2023/08/11 03:51:34;;;;;;;1.17;1.17;;;;;;;15.20;89.85;96003.47;4341832;32;20201;-67
2023/08/11 03:54:05;;;;;;;0.80;0.80;;;;;;;15.21;89.51;96013.06;4335623;32;20204;-67
2023/08/11 03:56:30;;;;;;;0.87;0.87;;;;;;;15.35;88.94;96016.47;4333620;32;20190;-67
2023/08/11 03:58:56;;;;;;;1.43;1.37;;;;;;;15.27;89.24;96019.88;4348656;32;20247;-67
2023/08/11 04:01:21;;;;;;;1.43;1.43;;;;;;;15.23;89.92;96014.34;4346056;32;20205;-67
2023/08/11 04:03:46;;;;;;;0.80;0.80;;;;;;;15.06;91.05;96017.72;4347634;32;20194;-67
2023/08/11 04:06:12;;;;;;;0.80;0.80;;;;;;;15.23;90.25;96021.59;4355178;32;20267;-67
2023/08/11 04:08:37;;;;;;;1.03;1.03;;;;;;;15.16;90.52;96022.03;4348097;32;20189;-67
2023/08/11 04:11:02;;;;;;;0.97;0.97;;;;;;;15.15;90.77;96022.34;4347494;32;20227;-67
2023/08/11 04:13:28;;;;;;;1.13;1.03;;;;;;;15.07;90.40;96024.63;4354331;32;20351;-66
2023/08/11 04:15:53;;;;;;;1.63;1.50;;;;;;;15.08;91.19;96025.41;4339362;32;20189;-66
2023/08/11 04:18:19;;;;;;;1.80;1.70;;;;;;;15.10;90.94;96018.69;4349613;32;20177;-67
2023/08/11 04:20:45;;;;;;;1.23;1.23;;;;;;;15.02;91.32;96022.06;4350734;32;20186;-67
2023/08/11 04:23:11;;;;;;;3.13;1.27;;;;;;;15.13;91.03;96017.28;4352352;32;20204;-66
2023/08/11 04:25:37;;;;;;;1.63;1.43;;;;;;;15.08;91.25;96020.88;4342942;32;20194;-67
2023/08/11 04:28:03;;;;;;;2.10;1.80;;;;;;;15.06;91.38;96028.41;4341663;32;20185;-67
2023/08/11 04:30:29;;;;;;;1.17;1.17;;;;;;;15.09;91.15;96022.44;4343894;32;20330;-67
2023/08/11 04:32:54;;;;;;;0.63;0.63;;;;;;;15.06;91.31;96027.59;4341831;32;20185;-67
2023/08/11 04:35:20;;;;;;;0.77;0.77;;;;;;;15.00;91.68;96026.94;4346103;32;20185;-67
2023/08/11 04:37:45;;;;;;;1.07;1.07;;;;;;;14.97;91.86;96021.41;4339597;32;20251;-67
2023/08/11 04:40:13;;;;;;;1.17;0.80;;;;;;;14.94;92.03;96030.84;4349858;32;20200;-67
2023/08/11 04:42:39;;;;;;;1.50;1.40;;;;;;;15.03;91.76;96029.00;4348429;32;20194;-66
2023/08/11 04:45:05;;;;;;;1.70;1.47;;;;;;;15.04;91.48;96033.25;4354536;32;20184;-66
2023/08/11 04:47:30;;;;;;;0.63;0.63;;;;;;;14.97;91.73;96032.88;4341506;32;20205;-67
2023/08/11 04:49:55;;;;;;;0.70;0.70;;;;;;;15.02;91.74;96035.44;4342559;32;20209;-67
2023/08/11 04:52:21;;;;;;;1.30;1.30;;;;;;;15.10;91.30;96042.75;4352802;32;20255;-67
2023/08/11 04:54:47;;;;;;;1.57;1.47;;;;;;;15.12;91.23;96045.09;4342477;32;20173;-66
2023/08/11 04:57:12;;;;;;;0.97;0.97;;;;;;;15.19;90.90;96050.00;4349390;32;20235;-66
2023/08/11 04:59:37;;;;;;;0.93;0.93;;;;;;;15.35;90.27;96048.56;4341161;32;20285;-67
2023/08/11 05:02:03;;;;;;;1.87;1.77;;;;;;;15.35;90.09;96054.69;4353197;32;20248;-67
2023/08/11 05:04:28;;;;;;;1.13;1.13;;;;;;;15.18;91.05;96048.44;4345857;32;20263;-67
2023/08/11 05:06:53;;;;;;;0.73;0.73;;;;;;;15.12;91.55;96053.91;4344745;32;20186;-67
2023/08/11 05:09:19;;;;;;;0.83;0.83;;;;;;;15.23;91.25;96059.00;4345195;32;20197;-67
2023/08/11 05:11:44;;;;;;;1.33;1.33;;;;;;;15.23;91.38;96053.66;4348606;32;20185;-67
2023/08/11 05:14:09;;;;;;;1.43;1.40;;;;;;;15.24;91.42;96053.34;4347902;32;20197;-67
2023/08/11 05:16:35;;;;;;;0.90;0.90;;;;;;;15.25;91.09;96048.81;4343493;32;20185;-67
2023/08/11 05:19:01;;;;;;;3.90;1.63;;;;;;;15.20;91.61;96059.59;4337157;32;20251;-67
2023/08/11 05:21:26;;;;;;;0.70;0.70;;;;;;;15.29;91.41;96060.47;4338938;32;20288;-67
2023/08/11 05:23:51;;;;;;;0.93;0.93;;;;;;;15.27;91.89;96057.31;4338936;32;20181;-67
2023/08/11 05:26:17;;;;;;;1.23;1.23;;;;;;;15.31;91.87;96059.06;4333516;32;20181;-66
2023/08/11 05:28:43;;;;;;;1.20;1.20;;;;;;;15.42;91.83;96056.94;4348133;32;20205;-69
2023/08/11 05:31:09;;;;;;;1.10;1.10;;;;;;;15.40;92.15;96059.09;4332483;32;20181;-67
2023/08/11 05:33:34;;;;;;;1.23;1.23;;;;;;;15.45;92.01;96064.34;4337845;32;20176;-67
2023/08/11 05:35:59;;;;;;;1.00;1.00;;;;;;;15.48;92.34;96061.06;4339640;32;20182;-67
2023/08/11 05:38:25;;;;;;;0.97;0.97;;;;;;;15.45;92.71;96056.31;4337889;32;20185;-67
2023/08/11 05:40:50;;;;;;;1.40;1.30;;;;;;;15.64;91.66;96064.94;4338789;32;20215;-66
2023/08/11 05:43:15;;;;;;;0.97;0.97;;;;;;;15.74;91.33;96062.03;4340475;32;20225;-66
2023/08/11 05:45:41;;;;;;;0.57;0.57;;;;;;;15.81;91.02;96062.34;4341074;32;20177;-66
2023/08/11 05:48:06;;;;;;;0.90;0.90;;;;;;;15.78;91.55;96057.66;4342719;32;20185;-67
2023/08/11 05:50:32;;;;;;;1.13;1.13;;;;;;;15.87;91.40;96056.88;4343502;32;20194;-67
2023/08/11 05:52:57;;;;;;;0.73;0.73;;;;;;;15.85;91.82;96059.06;4334836;32;20185;-67
2023/08/11 05:55:23;;;;;;;1.60;1.23;;;;;;;15.89;91.68;96060.03;4335748;32;20170;-67
2023/08/11 05:57:49;;;;;;;1.50;1.30;;;;;;;16.05;90.99;96066.56;4351478;32;20261;-67
2023/08/11 06:00:18;;;;;;;1.03;1.03;;;;;;;16.05;91.22;96062.00;4341912;32;20178;-66
2023/08/11 06:02:44;;;;;;;0.70;0.70;;;;;;;16.02;91.77;96056.47;4339921;32;20186;-67
2023/08/11 06:05:10;;;;;;;1.47;1.37;;;;;;;16.13;91.25;96058.56;4333582;32;20190;-66
2023/08/11 06:07:35;;;;;;;0.93;0.93;;;;;;;16.09;91.87;96062.94;4339248;32;20240;-67
2023/08/11 06:10:01;;;;;;;0.77;0.77;;;;;;;16.15;91.45;96061.72;4360339;32;20246;-67
2023/08/11 06:12:26;;;;;;;1.00;1.00;;;;;;;16.19;91.73;96061.91;4358761;32;20254;-69
2023/08/11 06:14:53;;;;;;;0.90;0.90;;;;;;;16.22;91.89;96061.25;4344917;32;20204;-69
2023/08/11 06:17:18;;;;;;;0.97;0.97;;;;;;;16.31;91.55;96063.97;4354612;32;20200;-69
2023/08/11 06:19:43;;;;;;;1.03;1.03;;;;;;;16.37;91.53;96058.16;4346103;32;20185;-66
2023/08/11 06:22:09;;;;;;;1.07;1.07;;;;;;;16.40;91.42;96065.59;4347097;32;20181;-63
2023/08/11 06:24:34;;;;;;;1.57;1.47;;;;;;;16.50;91.46;96059.91;4343177;32;20201;-67
2023/08/11 06:27:00;;;;;;;0.67;0.67;;;;;;;16.58;91.24;96062.94;4338166;32;20181;-67
2023/08/11 06:29:25;;;;;;;1.23;1.23;;;;;;;16.67;90.75;96053.03;4340085;32;20186;-67
2023/08/11 06:31:51;;;;;;;0.80;0.80;;;;;;;16.75;90.73;96054.94;4345206;32;20201;-67
2023/08/11 06:34:17;;;;;;;1.10;1.10;;;;;;;16.88;90.37;96054.00;4344027;32;20343;-67
2023/08/11 06:36:46;;;;;;;1.37;1.37;;;;;;;16.99;90.48;96052.59;4351979;32;20181;-66
2023/08/11 06:39:11;;;;;;;1.40;1.40;;;;;;;17.13;90.11;96055.88;4337594;32;20181;-66
2023/08/11 06:41:38;;;;;;;0.90;0.90;;;;;;;17.32;89.09;96055.56;4344029;32;20243;-67
2023/08/11 06:44:04;;;;;;;0.90;0.90;;;;;;;17.40;88.89;96053.97;4342876;32;20184;-67
2023/08/11 06:46:29;;;;;;;1.20;1.20;;;;;;;17.49;88.31;96054.72;4351811;32;20272;-67
2023/08/11 06:48:55;;;;;;;2.70;1.87;;;;;;;17.53;88.54;96051.09;4355618;32;20169;-67
2023/08/11 06:51:20;;;;;;;0.80;0.80;;;;;;;17.66;88.00;96054.75;4350158;32;20220;-66
2023/08/11 06:53:45;;;;;;;1.17;1.17;;;;;;;17.67;88.98;96056.28;4340287;32;20220;-67
2023/08/11 06:56:11;;;;;;;1.20;1.20;;;;;;;17.75;88.37;96060.06;4343225;32;20181;-68
2023/08/11 06:58:36;;;;;;;1.50;1.40;;;;;;;17.86;88.13;96064.00;4338334;32;20186;-67
2023/08/11 07:01:03;;;;;;;1.37;1.37;;;;;;;17.96;87.47;96068.22;4350707;32;20196;-67
2023/08/11 07:03:28;;;;;;;0.83;0.83;;;;;;;18.01;87.87;96076.88;4341499;32;20252;-67
2023/08/11 07:05:54;;;;;;;1.33;1.23;;;;;;;18.07;87.86;96074.81;4346951;32;20193;-67
2023/08/11 07:08:20;;;;;;;1.43;1.33;;;;;;;18.03;87.79;96074.66;4338255;32;20243;-67
2023/08/11 07:10:46;;;;;;;1.63;0.87;;;;;;;18.16;87.12;96073.66;4332960;32;20193;-67
2023/08/11 07:13:11;;;;;;;0.80;0.80;;;;;;;18.29;86.44;96077.22;4354712;32;20193;-66
2023/08/11 07:15:40;;;;;;;1.53;1.43;;;;;;;18.39;86.75;96076.88;4341714;32;20233;-67
2023/08/11 07:18:06;;;;;;;1.00;1.00;;;;;;;18.43;86.10;96083.19;4339048;32;20177;-67
2023/08/11 07:20:31;;;;;;;1.77;1.43;;;;;;;18.53;85.45;96084.69;4350672;32;20184;-68
2023/08/11 07:22:56;;;;;;;1.23;1.23;;;;;;;18.54;86.00;96089.75;4338779;32;20281;-67
2023/08/11 07:25:22;;;;;;;1.23;1.23;;;;;;;18.63;85.32;96087.03;4342232;32;20204;-67
2023/08/11 07:27:47;;;;;;;0.60;0.60;;;;;;;18.70;84.72;96086.53;4344250;32;20189;-67
2023/08/11 07:30:12;;;;;;;1.60;1.50;;;;;;;18.77;84.33;96086.78;4339509;32;20193;-66
2023/08/11 07:32:38;;;;;;;0.87;0.87;;;;;;;18.82;83.83;96083.91;4339687;32;20181;-68
2023/08/11 07:35:05;;;;;;;0.90;0.90;;;;;;;18.87;83.71;96081.03;4331527;32;20186;-67
2023/08/11 07:37:30;;;;;;;2.00;1.07;;;;;;;19.06;82.83;96084.06;4339690;32;20256;-67
2023/08/11 07:39:56;;;;;;;0.90;0.90;;;;;;;19.15;82.36;96079.38;4344762;32;20212;-68
2023/08/11 07:42:21;;;;;;;1.50;1.40;;;;;;;19.23;79.97;96080.44;4335607;32;20185;-67
2023/08/11 07:44:47;;;;;;;0.93;0.93;;;;;;;19.32;79.65;96083.84;4347926;32;20237;-67
2023/08/11 07:47:12;;;;;;;2.37;0.87;;;;;;;19.38;79.96;96076.34;4350929;32;20185;-66
2023/08/11 07:49:38;;;;;;;1.23;1.23;;;;;;;19.49;77.42;96081.00;4356593;32;20248;-67
2023/08/11 07:52:03;;;;;;;1.40;1.23;;;;;;;19.58;76.79;96085.53;4343239;32;20185;-67
2023/08/11 07:54:29;;;;;;;0.70;0.70;;;;;;;19.56;76.66;96077.78;4356019;32;20245;-67
2023/08/11 07:56:54;;;;;;;0.50;0.50;;;;;;;19.61;76.97;96079.50;4342768;32;20196;-67
2023/08/11 07:59:19;;;;;;;1.77;1.03;;;;;;;19.70;76.40;96085.59;4342553;32;20204;-67
2023/08/11 08:01:46;;;;;;;0.80;0.80;;;;;;;19.74;76.02;96079.22;4347217;32;20186;-66
2023/08/11 08:04:11;;;;;;;0.83;0.83;;;;;;;19.76;75.87;96079.62;4340223;32;20192;-66
2023/08/11 08:06:43;;;;;;;14.50;11.97;;;;;;;19.79;75.06;96076.28;4339450;32;20209;-67
2023/08/11 08:09:11;;;;;;;3.57;3.27;;;;;;;19.81;75.68;96076.75;4340832;32;20180;-67
2023/08/11 08:11:38;;;;;;;1.00;1.00;;;;;;;19.83;76.36;96087.97;4339183;32;20186;-67
2023/08/11 08:14:03;;;;;;;1.27;1.27;;;;;;;19.87;76.45;96078.09;4353805;32;20360;-67
2023/08/11 08:16:29;;;;;;;0.73;0.73;;;;;;;19.97;75.79;96084.16;4340883;32;20208;-67
2023/08/11 08:18:54;;;;;;;1.20;1.10;;;;;;;20.01;77.32;96079.69;4352171;32;20208;-67
2023/08/11 08:21:20;;;;;;;1.17;1.17;;;;;;;19.98;77.42;96083.03;4354204;32;20216;-67
2023/08/11 08:23:45;;;;;;;0.63;0.63;;;;;;;20.08;75.32;96085.31;4348925;32;20178;-67
2023/08/11 08:26:10;;;;;;;0.80;0.80;;;;;;;20.11;77.73;96084.66;4342891;32;20262;-66
2023/08/11 08:28:37;;;;;;;0.60;0.60;;;;;;;20.16;77.20;96084.44;4341964;32;20177;-67
2023/08/11 08:31:02;;;;;;;0.63;0.63;;;;;;;20.14;76.89;96084.00;4346667;32;20177;-67
2023/08/11 08:33:27;;;;;;;1.03;1.03;;;;;;;20.20;75.62;96085.31;4347370;32;20239;-67
2023/08/11 08:35:53;;;;;;;0.60;0.60;;;;;;;20.30;77.02;96089.50;4342101;32;20184;-67
2023/08/11 08:38:18;;;;;;;0.77;0.77;;;;;;;20.28;77.39;96084.44;4344296;32;20263;-67
2023/08/11 08:40:44;;;;;;;0.70;0.70;;;;;;;20.32;76.64;96079.94;4348866;32;20185;-66
2023/08/11 08:43:10;;;;;;;0.83;0.83;;;;;;;20.36;75.49;96072.78;4354099;32;20174;-67
2023/08/11 08:45:38;;;;;;;1.10;1.10;;;;;;;20.43;74.82;96083.78;4349115;32;20184;-67
2023/08/11 08:48:09;;;;;;;1.03;1.03;;;;;;;20.57;72.84;96084.25;4337375;32;20227;-67
2023/08/11 08:50:36;;;;;;;1.07;0.87;;;;;;;20.62;72.86;96083.22;4338936;32;20181;-67
2023/08/11 08:53:01;;;;;;;0.93;0.93;;;;;;;20.70;72.45;96084.22;4329502;32;20195;-68
2023/08/11 08:55:27;;;;;;;0.67;0.67;;;;;;;20.74;72.17;96087.81;4352569;32;20213;-67
2023/08/11 08:57:52;;;;;;;0.43;0.43;;;;;;;20.72;72.94;96076.59;4352788;32;20181;-68
2023/08/11 09:00:18;;;;;;;0.97;0.80;;;;;;;20.69;73.08;96080.75;4347043;32;20267;-67
2023/08/11 09:02:45;;;;;;;0.60;0.60;;;;;;;20.73;72.28;96083.56;4336819;32;20204;-67
2023/08/11 09:05:12;;;;;;;0.83;0.83;;;;;;;20.83;70.49;96080.38;4339363;32;20188;-65
2023/08/11 09:07:38;;;;;;;0.60;0.60;;;;;;;20.81;70.56;96085.31;4353221;32;20180;-67
2023/08/11 09:10:04;;;;;;;0.60;0.60;;;;;;;20.88;70.38;96088.25;4332407;32;20177;-67
2023/08/11 09:12:29;;;;;;;0.53;0.53;;;;;;;20.91;69.17;96084.88;4353432;32;20196;-67
2023/08/11 09:14:55;;;;;;;0.60;0.60;;;;;;;21.06;68.03;96086.84;4341924;32;20207;-67
2023/08/11 09:17:21;;;;;;;0.87;0.87;;;;;;;21.24;68.28;96092.78;4332519;32;20201;-67
2023/08/11 09:19:53;;;;;;;0.40;0.40;;;;;;;21.30;66.56;96088.72;4334959;32;20232;-67
2023/08/11 09:22:25;;;;;;;1.83;1.43;;;;;;;21.44;65.42;96085.63;4329657;32;20181;-67
2023/08/11 09:24:50;;;;;;;1.90;1.13;;;;;;;21.61;65.31;96080.72;4326285;32;20248;-67
2023/08/11 09:27:15;;;;;;;1.97;1.23;;;;;;;21.56;66.52;96077.50;4329484;32;20185;-67
2023/08/11 09:29:41;;;;;;;0.40;0.40;;;;;;;21.56;66.35;96075.59;4351673;32;20189;-66
2023/08/11 09:32:06;;;;;;;0.50;0.50;;;;;;;21.64;66.28;96067.66;4340841;32;20182;-67
2023/08/11 09:34:32;;;;;;;1.57;0.70;;;;;;;21.70;66.18;96077.88;4329557;32;20212;-68
2023/08/11 09:36:57;;;;;;;0.90;0.90;;;;;;;21.74;65.39;96077.97;4334592;32;20311;-67
2023/08/11 09:39:27;;;;;;;3.07;2.90;;;;;;;21.70;65.48;96077.88;4339216;32;20268;-67
2023/08/11 09:41:52;;;;;;;1.23;1.23;;;;;;;21.70;65.88;96072.47;4333503;32;20217;-67
2023/08/11 09:44:19;;;;;;;1.10;0.80;;;;;;;21.75;65.97;96074.13;4336124;32;20170;-67
2023/08/11 09:46:46;;;;;;;0.80;0.80;;;;;;;21.83;65.66;96073.16;4331687;32;20197;-67
2023/08/11 09:49:12;;;;;;;0.60;0.60;;;;;;;21.74;66.94;96081.44;4336583;32;20190;-67
2023/08/11 09:51:38;;;;;;;0.60;0.60;;;;;;;21.71;65.39;96084.06;4339907;32;20199;-68
2023/08/11 09:54:07;;;;;;;0.90;0.83;;;;;;;21.76;65.25;96081.91;4327134;32;20293;-67
2023/08/11 09:56:35;;;;;;;1.20;1.20;;;;;;;21.74;65.01;96086.84;4326973;32;20232;-67
2023/08/11 09:59:03;;;;;;;0.90;0.90;;;;;;;21.75;66.69;96072.22;4341360;32;20256;-67
2023/08/11 10:01:30;;;;;;;4.63;0.93;;;;;;;21.84;66.30;96072.81;4351340;32;20192;-67
2023/08/11 10:04:01;;;;;;;0.90;0.90;;;;;;;21.87;65.77;96069.44;4325678;32;20205;-67
2023/08/11 10:06:29;;;;;;;0.63;0.63;;;;;;;21.97;64.46;96070.06;4337417;32;20173;-67
2023/08/11 10:09:00;;;;;;;0.93;0.93;;;;;;;21.96;63.81;96063.88;4326991;32;20308;-67
2023/08/11 10:11:28;;;;;;;0.60;0.60;;;;;;;22.03;63.43;96063.31;4329250;32;20190;-68
2023/08/11 10:13:56;;;;;;;2.17;0.73;;;;;;;22.07;62.30;96064.16;4338519;32;20260;-67
2023/08/11 10:16:33;;;;;;;1.47;1.37;;;;;;;22.10;62.33;96068.87;4338773;32;20237;-67
2023/08/11 10:19:00;;;;;;;0.50;0.50;;;;;;;22.14;62.32;96061.63;4333071;32;20192;-67
2023/08/11 10:21:26;;;;;;;1.00;0.90;;;;;;;22.17;63.35;96064.44;4328403;32;20250;-67
2023/08/11 10:23:53;;;;;;;1.93;1.27;;;;;;;22.44;61.18;96061.97;4334444;32;20193;-67
2023/08/11 10:26:20;;;;;;;0.87;0.87;;;;;;;22.74;60.71;96064.97;4332163;32;20178;-67
2023/08/11 10:28:46;;;;;;;0.47;0.47;;;;;;;22.95;60.11;96065.47;4349179;32;20236;-67
2023/08/11 10:31:12;;;;;;;0.73;0.73;;;;;;;22.92;60.47;96066.16;4332093;32;20204;-67
2023/08/11 10:33:37;;;;;;;0.77;0.77;;;;;;;23.10;59.17;96067.31;4326543;32;20177;-67
2023/08/11 10:36:03;;;;;;;0.33;0.33;;;;;;;23.14;59.05;96070.91;4336714;32;20181;-67
2023/08/11 10:38:32;;;;;;;0.40;0.40;;;;;;;23.07;58.68;96067.28;4332410;32;20197;-67
2023/08/11 10:41:05;;;;;;;0.70;0.70;;;;;;;23.00;59.95;96070.59;4338938;32;20254;-67
2023/08/11 10:43:34;;;;;;;0.77;0.77;;;;;;;22.93;60.07;96067.72;4347022;32;20220;-67
2023/08/11 10:46:17;;;;;;;0.97;0.97;;;;;;;22.87;60.34;96059.09;4334099;32;20182;-67
2023/08/11 10:48:42;;;;;;;2.00;0.63;;;;;;;22.99;59.52;96060.91;4336870;32;20240;-67
2023/08/11 10:51:23;;;;;;;0.73;0.73;;;;;;;23.06;59.66;96061.06;4341497;32;20250;-67
2023/08/11 10:53:48;;;;;;;0.73;0.73;;;;;;;23.13;59.55;96061.19;4351261;32;20188;-67
2023/08/11 10:56:14;;;;;;;0.83;0.83;;;;;;;23.10;60.43;96053.78;4334834;32;20303;-67
2023/08/11 10:58:39;;;;;;;1.17;1.17;;;;;;;23.04;61.41;96049.81;4337830;32;20181;-68
2023/08/11 11:01:04;;;;;;;0.90;0.90;;;;;;;23.04;61.60;96049.03;4335503;32;20189;-67
2023/08/11 11:03:30;;;;;;;0.60;0.60;;;;;;;23.05;60.59;96048.69;4333850;32;20261;-67
2023/08/11 11:05:57;;;;;;;0.87;0.87;;;;;;;23.08;61.14;96042.53;4328677;32;20235;-67
2023/08/11 11:08:22;;;;;;;1.20;1.07;;;;;;;23.13;60.36;96044.97;4340475;32;20198;-67
2023/08/11 11:10:47;;;;;;;0.60;0.60;;;;;;;23.08;59.43;96042.53;4330060;32;20178;-67
2023/08/11 11:13:13;;;;;;;0.90;0.90;;;;;;;23.09;59.10;96038.69;4342282;32;20279;-67
2023/08/11 11:15:38;;;;;;;0.60;0.60;;;;;;;23.05;59.71;96042.47;4338484;32;20251;-68
2023/08/11 11:18:04;;;;;;;0.70;0.70;;;;;;;22.96;60.35;96043.47;4339122;32;20181;-67
2023/08/11 11:20:29;;;;;;;1.13;1.13;;;;;;;23.18;58.92;96033.84;4337875;32;20269;-67
2023/08/11 11:22:55;;;;;;;1.00;1.00;;;;;;;23.26;59.56;96043.69;4331835;32;20243;-67
2023/08/11 11:25:20;;;;;;;0.60;0.60;;;;;;;23.59;57.71;96043.19;4340988;32;20249;-67
2023/08/11 11:27:46;;;;;;;1.00;1.00;;;;;;;23.87;57.08;96051.06;4333344;32;20212;-67
2023/08/11 11:30:13;;;;;;;0.73;0.73;;;;;;;24.10;55.77;96042.94;4350819;32;20229;-67